createdAt,value
2019-05-25T00:01:49.285Z,98203.81
2019-05-25T00:04:15.805Z,98200.09
2019-05-25T00:06:42.303Z,98196.91
2019-05-25T00:09:08.761Z,98203.98
2019-05-25T00:11:35.391Z,98198.63
2019-05-25T00:14:02.139Z,98199.03
2019-05-25T00:16:28.718Z,98195.59
2019-05-25T00:18:55.224Z,98194.83
2019-05-25T00:21:22.059Z,98197.23
2019-05-25T00:23:48.570Z,98195.52
2019-05-25T00:26:16.082Z,98201.58
2019-05-25T00:28:43.078Z,98200.86
2019-05-25T00:31:09.777Z,98198.39
2019-05-25T00:33:36.543Z,98210.91
2019-05-25T00:36:03.227Z,98211.17
2019-05-25T00:38:29.929Z,98211.41
2019-05-25T00:40:56.459Z,98209.40
2019-05-25T00:43:24.024Z,98209.92
2019-05-25T00:45:50.493Z,98208.44
2019-05-25T00:48:17.115Z,98205.14
2019-05-25T00:50:43.821Z,98202.56
2019-05-25T00:53:10.346Z,98202.17
2019-05-25T00:55:36.880Z,98205.80
2019-05-25T00:58:03.507Z,98199.36
2019-05-25T01:00:30.088Z,98195.63
2019-05-25T01:02:56.904Z,98197.38
2019-05-25T01:05:23.398Z,98207.77
2019-05-25T01:07:49.884Z,98217.09
2019-05-25T01:10:17.512Z,98215.03
2019-05-25T01:12:44.248Z,98206.05
2019-05-25T01:15:11.830Z,98204.87
2019-05-25T01:17:38.406Z,98213.94
2019-05-25T01:20:05.479Z,98215.59
2019-05-25T01:22:31.984Z,98218.16
2019-05-25T01:24:58.686Z,98215.89
2019-05-25T01:27:25.201Z,98211.54
2019-05-25T01:29:51.662Z,98219.28
2019-05-25T01:32:18.161Z,98220.08
2019-05-25T01:34:44.709Z,98213.94
2019-05-25T01:37:11.457Z,98217.04
2019-05-25T01:39:38.185Z,98215.72
2019-05-25T01:42:04.661Z,98212.69
2019-05-25T01:44:31.178Z,98210.45
2019-05-25T01:46:57.649Z,98203.63
2019-05-25T01:49:24.156Z,98207.05
2019-05-25T01:51:50.699Z,98207.34
2019-05-25T01:54:17.148Z,98204.27
2019-05-25T01:56:43.603Z,98217.03
2019-05-25T01:59:10.447Z,98213.98
2019-05-25T02:01:37.099Z,98214.71
2019-05-25T02:04:03.783Z,98215.32
2019-05-25T02:06:30.282Z,98221.91
2019-05-25T02:08:56.790Z,98217.55
2019-05-25T02:11:23.254Z,98218.39
2019-05-25T02:13:49.895Z,98225.66
2019-05-25T02:16:16.381Z,98226.05
2019-05-25T02:18:45.636Z,98221.75
2019-05-25T02:21:11.214Z,98229.14
2019-05-25T02:23:37.954Z,98221.91
2019-05-25T02:26:04.464Z,98223.27
2019-05-25T02:28:32.266Z,98218.58
2019-05-25T02:30:58.747Z,98223.39
2019-05-25T02:33:25.259Z,98220.99
2019-05-25T02:35:52.013Z,98223.02
2019-05-25T02:38:22.858Z,98221.97
2019-05-25T02:40:49.489Z,98224.61
2019-05-25T02:43:15.959Z,98222.49
2019-05-25T02:45:42.468Z,98221.33
2019-05-25T02:48:09.073Z,98219.80
2019-05-25T02:50:36.841Z,98223.97
2019-05-25T02:53:03.389Z,98221.73
2019-05-25T02:55:34.427Z,98221.42
2019-05-25T02:57:58.320Z,98227.83
2019-05-25T03:00:31.752Z,98226.32
2019-05-25T03:02:58.598Z,98227.11
2019-05-25T03:05:25.369Z,98226.70
2019-05-25T03:07:52.910Z,98228.34
2019-05-25T03:10:19.561Z,98232.17
2019-05-25T03:12:46.145Z,98231.77
2019-05-25T03:15:12.946Z,98230.14
2019-05-25T03:17:39.479Z,98234.76
2019-05-25T03:20:10.089Z,98239.49
2019-05-25T03:22:36.835Z,98233.22
2019-05-25T03:25:03.921Z,98231.82
2019-05-25T03:27:30.699Z,98230.39
2019-05-25T03:29:57.332Z,98229.67
2019-05-25T03:32:23.850Z,98234.08
2019-05-25T03:34:51.081Z,98238.44
2019-05-25T03:37:17.614Z,98235.00
2019-05-25T03:39:44.451Z,98234.22
2019-05-25T03:42:11.130Z,98238.58
2019-05-25T03:44:37.820Z,98243.05
2019-05-25T03:47:04.569Z,98243.96
2019-05-25T03:49:31.237Z,98246.59
2019-05-25T03:51:57.766Z,98250.03
2019-05-25T03:54:24.622Z,98256.94
2019-05-25T03:56:51.246Z,98255.09
2019-05-25T03:59:18.118Z,98258.53
2019-05-25T04:01:46.954Z,98255.42
2019-05-25T04:04:13.505Z,98259.65
2019-05-25T04:06:40.020Z,98266.13
2019-05-25T04:09:06.689Z,98268.76
2019-05-25T04:11:33.269Z,98263.34
2019-05-25T04:14:00.038Z,98270.39
2019-05-25T04:16:26.601Z,98273.34
2019-05-25T04:18:53.179Z,98277.50
2019-05-25T04:21:19.746Z,98280.19
2019-05-25T04:23:47.360Z,98276.18
2019-05-25T04:26:22.560Z,98275.78
2019-05-25T04:28:42.598Z,98274.34
2019-05-25T04:31:09.350Z,98278.61
2019-05-25T04:33:35.995Z,98282.97
2019-05-25T04:36:02.648Z,98282.77
2019-05-25T04:38:29.189Z,98284.69
2019-05-25T04:40:55.677Z,98278.77
2019-05-25T04:43:22.224Z,98285.77
2019-05-25T04:45:48.820Z,98289.05
2019-05-25T04:48:15.600Z,98293.08
2019-05-25T04:50:42.353Z,98288.45
2019-05-25T04:53:09.135Z,98282.64
2019-05-25T04:55:37.776Z,98291.99
2019-05-25T04:58:04.347Z,98290.21
2019-05-25T05:00:30.888Z,98290.00
2019-05-25T05:02:57.368Z,98290.91
2019-05-25T05:05:26.265Z,98283.67
2019-05-25T05:07:53.005Z,98289.79
2019-05-25T05:10:19.825Z,98294.11
2019-05-25T05:12:46.345Z,98284.52
2019-05-25T05:15:13.084Z,98292.64
2019-05-25T05:17:39.596Z,98289.84
2019-05-25T05:20:06.473Z,98289.48
2019-05-25T05:22:33.002Z,98288.84
2019-05-25T05:24:59.508Z,98284.76
2019-05-25T05:27:26.034Z,98283.03
2019-05-25T05:29:52.593Z,98286.14
2019-05-25T05:32:27.702Z,98283.77
2019-05-25T05:34:49.348Z,98279.69
2019-05-25T05:37:16.331Z,98281.20
2019-05-25T05:39:43.447Z,98288.49
2019-05-25T05:42:12.944Z,98294.42
2019-05-25T05:44:40.587Z,98295.86
2019-05-25T05:47:10.387Z,98300.24
2019-05-25T05:49:37.167Z,98302.67
2019-05-25T05:52:03.803Z,98306.02
2019-05-25T05:54:30.750Z,98306.02
2019-05-25T05:57:11.176Z,98311.68
2019-05-25T05:59:26.230Z,98307.25
2019-05-25T06:01:52.730Z,98310.13
2019-05-25T06:04:19.550Z,98314.41
2019-05-25T06:06:46.235Z,98314.41
2019-05-25T06:09:12.743Z,98328.89
2019-05-25T06:11:39.269Z,98325.64
2019-05-25T06:14:06.002Z,98326.47
2019-05-25T06:16:32.559Z,98318.68
2019-05-25T06:18:59.301Z,98296.16
2019-05-25T06:21:26.238Z,98312.53
2019-05-25T06:23:52.807Z,98323.69
2019-05-25T06:26:19.272Z,98326.89
2019-05-25T06:28:45.885Z,98324.89
2019-05-25T06:31:12.502Z,98324.89
2019-05-25T06:33:39.048Z,98326.02
2019-05-25T06:36:05.597Z,98336.80
2019-05-25T06:38:32.212Z,98331.38
2019-05-25T06:40:58.826Z,98334.60
2019-05-25T06:43:25.669Z,98332.22
2019-05-25T06:45:52.260Z,98332.61
2019-05-25T06:48:18.877Z,98340.86
2019-05-25T06:50:47.554Z,98332.19
2019-05-25T06:53:14.294Z,98341.59
2019-05-25T06:55:40.767Z,98341.56
2019-05-25T06:58:07.590Z,98344.95
2019-05-25T07:00:34.442Z,98342.04
2019-05-25T07:03:01.331Z,98349.77
2019-05-25T07:05:28.134Z,98346.39
2019-05-25T07:07:54.970Z,98347.80
2019-05-25T07:10:21.831Z,98349.81
2019-05-25T07:12:48.540Z,98343.23
2019-05-25T07:15:15.275Z,98353.64
2019-05-25T07:17:41.943Z,98337.91
2019-05-25T07:20:08.972Z,98340.31
2019-05-25T07:22:37.649Z,98342.91
2019-05-25T07:25:04.667Z,98350.69
2019-05-25T07:27:31.202Z,98350.69
2019-05-25T07:29:58.007Z,98351.25
2019-05-25T07:32:24.528Z,98353.34
2019-05-25T07:34:51.430Z,98355.25
2019-05-25T07:37:18.242Z,98357.27
2019-05-25T07:39:44.812Z,98357.70
2019-05-25T07:42:11.313Z,98356.25
2019-05-25T07:44:37.845Z,98356.47
2019-05-25T07:47:04.409Z,98360.73
2019-05-25T07:49:30.964Z,98359.42
2019-05-25T07:51:57.615Z,98352.91
2019-05-25T07:54:24.935Z,98360.80
2019-05-25T07:56:53.264Z,98358.03
2019-05-25T07:59:20.230Z,98361.58
2019-05-25T08:01:48.597Z,98363.20
2019-05-25T08:04:15.485Z,98368.00
2019-05-25T08:06:42.178Z,98369.06
2019-05-25T08:09:08.837Z,98368.97
2019-05-25T08:11:36.126Z,98371.02
2019-05-25T08:14:02.904Z,98377.25
2019-05-25T08:16:31.640Z,98377.90
2019-05-25T08:18:58.182Z,98385.45
2019-05-25T08:21:25.070Z,98386.98
2019-05-25T08:23:52.151Z,98385.59
2019-05-25T08:26:18.648Z,98390.34
2019-05-25T08:28:45.436Z,98387.03
2019-05-25T08:31:12.095Z,98393.27
2019-05-25T08:33:38.631Z,98393.22
2019-05-25T08:36:05.298Z,98389.23
2019-05-25T08:38:31.906Z,98394.80
2019-05-25T08:40:58.420Z,98393.48
2019-05-25T08:43:25.139Z,98394.05
2019-05-25T08:45:51.673Z,98387.27
2019-05-25T08:48:18.187Z,98391.59
2019-05-25T08:50:45.020Z,98381.62
2019-05-25T08:53:12.061Z,98388.38
2019-05-25T08:55:38.585Z,98388.02
2019-05-25T08:58:05.238Z,98390.42
2019-05-25T09:00:31.742Z,98386.34
2019-05-25T09:02:58.404Z,98395.06
2019-05-25T09:05:24.932Z,98397.19
2019-05-25T09:07:51.536Z,98400.23
2019-05-25T09:10:18.418Z,98405.88
2019-05-25T09:12:45.261Z,98394.40
2019-05-25T09:15:12.329Z,98396.63
2019-05-25T09:17:38.860Z,98399.59
2019-05-25T09:20:05.465Z,98394.27
2019-05-25T09:22:31.997Z,98394.14
2019-05-25T09:24:58.517Z,98396.50
2019-05-25T09:27:25.087Z,98396.34
2019-05-25T09:29:51.639Z,98386.74
2019-05-25T09:32:18.509Z,98392.40
2019-05-25T09:34:45.186Z,98396.01
2019-05-25T09:37:11.823Z,98390.59
2019-05-25T09:39:38.349Z,98394.11
2019-05-25T09:42:04.840Z,98393.97
2019-05-25T09:44:31.371Z,98390.69
2019-05-25T09:46:58.070Z,98391.31
2019-05-25T09:49:24.741Z,98391.80
2019-05-25T09:51:51.500Z,98395.17
2019-05-25T09:54:17.997Z,98393.15
2019-05-25T09:56:44.538Z,98389.30
2019-05-25T09:59:19.841Z,98385.22
2019-05-25T10:01:43.630Z,98386.16
2019-05-25T10:04:10.618Z,98388.55
2019-05-25T10:06:37.568Z,98393.25
2019-05-25T10:09:05.351Z,98392.23
2019-05-25T10:11:32.132Z,98391.19
2019-05-25T10:13:59.403Z,98396.86
2019-05-25T10:16:28.024Z,98392.40
2019-05-25T10:18:54.539Z,98396.45
2019-05-25T10:21:21.358Z,98394.60
2019-05-25T10:23:47.881Z,98398.98
2019-05-25T10:26:14.689Z,98393.13
2019-05-25T10:28:41.453Z,98391.49
2019-05-25T10:31:08.076Z,98393.09
2019-05-25T10:33:35.135Z,98397.97
2019-05-25T10:36:01.720Z,98390.45
2019-05-25T10:38:28.317Z,98395.50
2019-05-25T10:40:58.415Z,98392.48
2019-05-25T10:43:24.729Z,98391.28
2019-05-25T10:45:51.370Z,98394.58
2019-05-25T10:48:18.453Z,98386.48
2019-05-25T10:50:45.552Z,98392.13
2019-05-25T10:53:12.150Z,98392.20
2019-05-25T10:55:39.027Z,98391.16
2019-05-25T10:58:05.575Z,98393.23
2019-05-25T11:00:33.993Z,98385.48
2019-05-25T11:03:00.930Z,98383.16
2019-05-25T11:05:27.528Z,98379.06
2019-05-25T11:07:54.193Z,98384.16
2019-05-25T11:10:21.030Z,98379.47
2019-05-25T11:12:47.532Z,98369.64
2019-05-25T11:15:15.095Z,98372.00
2019-05-25T11:17:41.666Z,98377.09
2019-05-25T11:20:09.082Z,98379.83
2019-05-25T11:22:35.932Z,98380.73
2019-05-25T11:25:03.142Z,98383.16
2019-05-25T11:27:29.888Z,98382.45
2019-05-25T11:30:08.487Z,98375.38
2019-05-25T11:32:25.319Z,98375.98
2019-05-25T11:34:53.915Z,98381.84
2019-05-25T11:37:20.533Z,98374.48
2019-05-25T11:39:47.350Z,98377.52
2019-05-25T11:42:13.905Z,98368.27
2019-05-25T11:44:40.662Z,98368.27
2019-05-25T11:47:07.412Z,98365.17
2019-05-25T11:49:36.252Z,98371.45
2019-05-25T11:52:03.243Z,98371.70
2019-05-25T11:54:30.594Z,98367.64
2019-05-25T11:56:57.190Z,98365.53
2019-05-25T11:59:23.895Z,98367.95
2019-05-25T12:01:51.127Z,98363.23
2019-05-25T12:04:17.736Z,98357.03
2019-05-25T12:06:44.298Z,98345.93
2019-05-25T12:09:10.929Z,98342.91
2019-05-25T12:11:37.940Z,98347.75
2019-05-25T12:14:04.898Z,98344.08
2019-05-25T12:16:31.635Z,98338.10
2019-05-25T12:18:58.495Z,98343.73
2019-05-25T12:21:25.323Z,98351.46
2019-05-25T12:23:51.928Z,98358.61
2019-05-25T12:26:18.538Z,98354.87
2019-05-25T12:28:45.117Z,98351.96
2019-05-25T12:31:14.053Z,98350.62
2019-05-25T12:33:40.814Z,98351.43
2019-05-25T12:36:08.173Z,98354.44
2019-05-25T12:38:35.008Z,98359.88
2019-05-25T12:41:01.569Z,98364.95
2019-05-25T12:43:28.341Z,98360.98
2019-05-25T12:45:55.229Z,98363.80
2019-05-25T12:48:22.050Z,98355.03
2019-05-25T12:50:48.575Z,98360.21
2019-05-25T12:53:15.418Z,98367.00
2019-05-25T12:55:42.167Z,98373.12
2019-05-25T12:58:08.987Z,98359.25
2019-05-25T13:00:35.622Z,98359.80
2019-05-25T13:03:02.801Z,98367.14
2019-05-25T13:05:59.588Z,98361.41
2019-05-25T13:08:26.135Z,98372.63
2019-05-25T13:10:52.707Z,98363.05
2019-05-25T13:13:19.221Z,98364.75
2019-05-25T13:15:45.735Z,98358.38
2019-05-25T13:18:14.652Z,98354.64
2019-05-25T13:20:41.571Z,98357.42
2019-05-25T13:23:11.635Z,98355.00
2019-05-25T13:25:38.172Z,98353.50
2019-05-25T13:28:04.835Z,98352.91
2019-05-25T13:30:31.630Z,98354.27
2019-05-25T13:32:58.318Z,98348.64
2019-05-25T13:35:25.060Z,98346.06
2019-05-25T13:37:51.601Z,98343.33
2019-05-25T13:40:18.312Z,98335.52
2019-05-25T13:42:45.525Z,98342.08
2019-05-25T13:45:12.214Z,98343.13
2019-05-25T13:47:38.965Z,98341.86
2019-05-25T13:50:07.131Z,98336.33
2019-05-25T13:52:33.650Z,98334.11
2019-05-25T13:55:00.337Z,98337.08
2019-05-25T13:57:27.132Z,98332.59
2019-05-25T13:59:53.698Z,98335.25
2019-05-25T14:02:20.330Z,98340.27
2019-05-25T14:04:47.079Z,98341.64
2019-05-25T14:07:13.734Z,98340.59
2019-05-25T14:09:40.233Z,98334.41
2019-05-25T14:12:06.811Z,98335.30
2019-05-25T14:14:33.351Z,98337.20
2019-05-25T14:16:59.966Z,98348.86
2019-05-25T14:19:26.530Z,98341.03
2019-05-25T14:21:53.332Z,98337.08
2019-05-25T14:24:20.320Z,98340.31
2019-05-25T14:26:46.862Z,98341.95
2019-05-25T14:29:15.691Z,98337.20
2019-05-25T14:31:50.144Z,98336.80
2019-05-25T14:34:16.875Z,98336.17
2019-05-25T14:36:43.390Z,98336.97
2019-05-25T14:39:09.989Z,98344.83
2019-05-25T14:41:37.542Z,98340.25
2019-05-25T14:44:04.199Z,98336.95
2019-05-25T14:46:30.733Z,98334.05
2019-05-25T14:48:57.393Z,98327.20
2019-05-25T14:51:23.977Z,98329.31
2019-05-25T14:53:50.668Z,98330.13
2019-05-25T14:56:17.246Z,98326.21
2019-05-25T14:58:43.836Z,98330.59
2019-05-25T15:01:10.408Z,98328.06
2019-05-25T15:03:36.963Z,98324.39
2019-05-25T15:06:07.235Z,98330.89
2019-05-25T15:08:34.796Z,98327.64
2019-05-25T15:11:01.373Z,98325.03
2019-05-25T15:13:27.969Z,98324.77
2019-05-25T15:15:54.506Z,98321.98
2019-05-25T15:18:21.069Z,98326.25
2019-05-25T15:20:48.087Z,98320.71
2019-05-25T15:23:14.635Z,98325.28
2019-05-25T15:25:41.200Z,98330.11
2019-05-25T15:28:09.628Z,98329.22
2019-05-25T15:30:36.122Z,98332.74
2019-05-25T15:33:02.897Z,98337.97
2019-05-25T15:35:29.359Z,98331.94
2019-05-25T15:37:56.126Z,98332.02
2019-05-25T15:40:23.067Z,98328.66
2019-05-25T15:42:49.939Z,98334.72
2019-05-25T15:45:16.959Z,98328.82
2019-05-25T15:47:43.612Z,98341.56
2019-05-25T15:50:10.740Z,98331.37
2019-05-25T15:52:39.742Z,98332.89
2019-05-25T15:55:06.533Z,98331.81
2019-05-25T15:57:35.508Z,98331.43
2019-05-25T16:00:02.647Z,98331.22
2019-05-25T16:02:36.624Z,98335.84
2019-05-25T16:04:57.903Z,98328.33
2019-05-25T16:07:24.495Z,98332.41
2019-05-25T16:09:51.125Z,98324.67
2019-05-25T16:12:17.978Z,98331.11
2019-05-25T16:14:44.530Z,98327.95
2019-05-25T16:17:11.046Z,98332.59
2019-05-25T16:19:37.722Z,98345.45
2019-05-25T16:22:04.222Z,98338.31
2019-05-25T16:24:30.903Z,98339.47
2019-05-25T16:26:57.449Z,98351.00
2019-05-25T16:29:24.035Z,98336.22
2019-05-25T16:31:50.526Z,98348.23
2019-05-25T16:34:17.082Z,98351.44
2019-05-25T16:36:43.863Z,98350.58
2019-05-25T16:39:10.649Z,98353.72
2019-05-25T16:41:37.254Z,98355.70
2019-05-25T16:44:04.130Z,98359.77
2019-05-25T16:46:30.996Z,98357.40
2019-05-25T16:48:57.511Z,98361.87
2019-05-25T16:51:24.064Z,98356.92
2019-05-25T16:53:50.575Z,98358.97
2019-05-25T16:56:17.171Z,98362.02
2019-05-25T16:58:43.740Z,98364.97
2019-05-25T17:01:10.348Z,98362.41
2019-05-25T17:03:37.005Z,98360.84
2019-05-25T17:06:03.665Z,98368.75
2019-05-25T17:08:30.284Z,98371.59
2019-05-25T17:10:56.937Z,98366.27
2019-05-25T17:13:23.518Z,98377.87
2019-05-25T17:15:50.259Z,98372.23
2019-05-25T17:18:17.194Z,98376.64
2019-05-25T17:20:43.688Z,98366.34
2019-05-25T17:23:10.180Z,98371.11
2019-05-25T17:25:36.747Z,98377.28
2019-05-25T17:28:04.350Z,98375.48
2019-05-25T17:30:36.717Z,98383.41
2019-05-25T17:33:03.503Z,98381.88
2019-05-25T17:35:30.161Z,98381.84
2019-05-25T17:37:56.794Z,98385.83
2019-05-25T17:40:23.356Z,98385.83
2019-05-25T17:42:49.981Z,98391.19
2019-05-25T17:45:16.697Z,98391.19
2019-05-25T17:47:43.365Z,98389.66
2019-05-25T17:50:10.280Z,98384.09
2019-05-25T17:52:36.762Z,98392.47
2019-05-25T17:55:06.006Z,98389.89
2019-05-25T17:57:34.116Z,98388.33
2019-05-25T18:00:00.966Z,98385.75
2019-05-25T18:02:27.452Z,98386.06
2019-05-25T18:04:54.030Z,98392.19
2019-05-25T18:07:20.583Z,98392.34
2019-05-25T18:09:47.166Z,98391.87
2019-05-25T18:12:13.776Z,98388.91
2019-05-25T18:14:40.321Z,98381.53
2019-05-25T18:17:07.191Z,98384.48
2019-05-25T18:19:33.970Z,98394.94
2019-05-25T18:22:00.473Z,98388.29
2019-05-25T18:24:27.360Z,98394.89
2019-05-25T18:26:54.002Z,98399.23
2019-05-25T18:29:23.651Z,98405.95
2019-05-25T18:31:49.018Z,98400.14
2019-05-25T18:34:22.141Z,98406.53
2019-05-25T18:36:44.182Z,98403.89
2019-05-25T18:39:10.829Z,98401.19
2019-05-25T18:41:37.635Z,98407.34
2019-05-25T18:44:04.323Z,98409.33
2019-05-25T18:46:32.429Z,98409.75
2019-05-25T18:49:02.544Z,98419.36
2019-05-25T18:51:29.381Z,98420.88
2019-05-25T18:53:55.947Z,98418.78
2019-05-25T18:56:23.709Z,98425.11
2019-05-25T18:58:50.372Z,98427.12
2019-05-25T19:01:16.955Z,98431.73
2019-05-25T19:03:43.695Z,98431.34
2019-05-25T19:06:10.346Z,98434.25
2019-05-25T19:08:38.423Z,98434.31
2019-05-25T19:11:05.473Z,98437.67
2019-05-25T19:13:32.971Z,98440.89
2019-05-25T19:15:59.821Z,98440.31
2019-05-25T19:18:26.378Z,98440.48
2019-05-25T19:20:52.854Z,98446.09
2019-05-25T19:23:20.578Z,98442.82
2019-05-25T19:25:47.120Z,98447.45
2019-05-25T19:28:13.595Z,98457.58
2019-05-25T19:30:40.121Z,98464.91
2019-05-25T19:33:08.860Z,98468.92
2019-05-25T19:35:35.861Z,98472.29
2019-05-25T19:38:02.381Z,98473.38
2019-05-25T19:40:29.000Z,98469.48
2019-05-25T19:42:55.513Z,98478.56
2019-05-25T19:45:32.898Z,98484.73
2019-05-25T19:47:59.548Z,98487.38
2019-05-25T19:50:26.064Z,98493.16
2019-05-25T19:52:57.986Z,98494.73
2019-05-25T19:55:24.694Z,98495.68
2019-05-25T19:57:51.509Z,98496.36
2019-05-25T20:00:18.030Z,98500.05
2019-05-25T20:02:45.497Z,98501.89
2019-05-25T20:05:16.908Z,98502.23
2019-05-25T20:07:41.773Z,98504.78
2019-05-25T20:10:17.928Z,98504.59
2019-05-25T20:12:44.382Z,98506.83
2019-05-25T20:15:11.336Z,98504.98
2019-05-25T20:17:37.939Z,98503.98
2019-05-25T20:20:06.129Z,98509.00
2019-05-25T20:22:33.049Z,98513.08
2019-05-25T20:24:59.765Z,98515.72
2019-05-25T20:27:26.226Z,98523.76
2019-05-25T20:29:56.551Z,98530.16
2019-05-25T20:32:23.310Z,98529.52
2019-05-25T20:34:49.954Z,98528.39
2019-05-25T20:37:16.871Z,98527.00
2019-05-25T20:39:43.387Z,98522.87
2019-05-25T20:42:10.528Z,98536.77
2019-05-25T20:44:37.141Z,98531.39
2019-05-25T20:47:04.830Z,98543.42
2019-05-25T20:49:31.373Z,98540.20
2019-05-25T20:51:58.030Z,98548.21
2019-05-25T20:54:24.790Z,98543.42
2019-05-25T20:56:51.269Z,98545.52
2019-05-25T20:59:17.718Z,98542.63
2019-05-25T21:01:56.984Z,98544.25
2019-05-25T21:04:23.748Z,98543.45
2019-05-25T21:06:50.310Z,98547.80
2019-05-25T21:09:16.826Z,98546.58
2019-05-25T21:11:45.443Z,98551.89
2019-05-25T21:14:11.928Z,98544.91
2019-05-25T21:16:38.622Z,98550.68
2019-05-25T21:19:07.281Z,98545.75
2019-05-25T21:21:41.988Z,98545.14
2019-05-25T21:24:08.450Z,98545.14
2019-05-25T21:26:35.073Z,98550.50
2019-05-25T21:29:01.584Z,98551.55
2019-05-25T21:31:30.118Z,98546.55
2019-05-25T21:33:56.618Z,98549.28
2019-05-25T21:36:23.374Z,98554.77
2019-05-25T21:38:49.938Z,98561.20
2019-05-25T21:41:16.636Z,98567.94
2019-05-25T21:43:43.211Z,98564.50
2019-05-25T21:46:10.320Z,98564.41
2019-05-25T21:48:37.904Z,98560.05
2019-05-25T21:51:04.418Z,98564.41
2019-05-25T21:53:31.997Z,98564.62
2019-05-25T21:55:58.970Z,98561.96
2019-05-25T21:58:28.309Z,98556.98
2019-05-25T22:00:58.139Z,98560.68
2019-05-25T22:03:24.659Z,98560.23
2019-05-25T22:05:51.528Z,98560.80
2019-05-25T22:08:18.039Z,98557.31
2019-05-25T22:10:47.306Z,98568.27
2019-05-25T22:13:26.908Z,98565.83
2019-05-25T22:15:42.521Z,98575.89
2019-05-25T22:18:09.341Z,98572.44
2019-05-25T22:20:35.875Z,98572.44
2019-05-25T22:23:02.348Z,98575.47
2019-05-25T22:25:28.803Z,98579.41
2019-05-25T22:27:55.496Z,98574.16
2019-05-25T22:30:22.068Z,98577.69
2019-05-25T22:32:50.772Z,98570.78
2019-05-25T22:35:17.335Z,98569.06
2019-05-25T22:37:43.800Z,98565.79
2019-05-25T22:40:11.050Z,98554.23
2019-05-25T22:42:37.871Z,98553.09
2019-05-25T22:45:05.651Z,98549.72
2019-05-25T22:47:32.151Z,98552.79
2019-05-25T22:49:58.646Z,98562.87
2019-05-25T22:52:26.676Z,98555.38
2019-05-25T22:54:53.422Z,98558.38
2019-05-25T22:57:23.150Z,98544.40
2019-05-25T22:59:49.695Z,98543.53
2019-05-25T23:02:16.206Z,98550.95
2019-05-25T23:04:42.710Z,98542.60
2019-05-25T23:07:09.728Z,98543.50
2019-05-25T23:09:36.420Z,98530.77
2019-05-25T23:12:09.442Z,98532.90
2019-05-25T23:14:35.986Z,98538.18
2019-05-25T23:17:05.616Z,98534.62
2019-05-25T23:19:32.163Z,98525.37
2019-05-25T23:22:00.876Z,98527.05
2019-05-25T23:24:27.625Z,98516.94
2019-05-25T23:26:54.127Z,98517.05
2019-05-25T23:29:20.612Z,98514.42
2019-05-25T23:31:47.116Z,98517.38
2019-05-25T23:34:13.605Z,98502.87
2019-05-25T23:36:40.111Z,98501.86
2019-05-25T23:39:06.823Z,98502.72
2019-05-25T23:41:33.371Z,98508.79
2019-05-25T23:44:00.148Z,98507.48
2019-05-25T23:46:26.628Z,98507.89
2019-05-25T23:48:55.926Z,98502.72
2019-05-25T23:51:22.534Z,98502.76
2019-05-25T23:53:49.180Z,98498.52
2019-05-25T23:56:15.743Z,98506.02
2019-05-25T23:58:42.264Z,98507.37
